Time;durP1;ratioP1;P1;durP2;ratioP2;P2;SDS_P1;SDS_P2;PMS_P1;PMS_P2;Temp;Humidity;BMP_temperature;BMP_pressure;BME280_temperature;BME280_humidity;BME280_pressure;Samples;Min_cycle;Max_cycle;Signal;HPM_P1;HPM_P2
2021/04/07 00:00:37;;;;;;;0.30;0.20;;;1.30;79.90;;;;;;5015363;28;20517;-68
2021/04/07 00:03:04;;;;;;;0.20;0.20;;;1.30;79.90;;;;;;5015200;28;20021;-68
2021/04/07 00:05:33;;;;;;;1.38;0.50;;;1.30;80.10;;;;;;5015270;28;20466;-68
2021/04/07 00:07:59;;;;;;;0.35;0.30;;;1.20;80.10;;;;;;5015370;28;20102;-68
2021/04/07 00:10:32;;;;;;;0.20;0.20;;;1.20;80.20;;;;;;5015167;28;20034;-68
2021/04/07 00:12:58;;;;;;;0.30;0.30;;;1.20;80.30;;;;;;5015193;28;20022;-68
2021/04/07 00:15:25;;;;;;;0.13;0.13;;;1.20;80.20;;;;;;5015353;28;20030;-68
2021/04/07 00:17:51;;;;;;;0.32;0.17;;;1.20;80.20;;;;;;5014667;28;20037;-68
2021/04/07 00:20:19;;;;;;;0.30;0.30;;;1.10;80.20;;;;;;5015073;28;20025;-68
2021/04/07 00:22:45;;;;;;;0.35;0.32;;;1.10;80.10;;;;;;5015029;28;20121;-68
2021/04/07 00:25:12;;;;;;;0.98;0.40;;;1.10;80.20;;;;;;5015021;28;20104;-68
2021/04/07 00:27:40;;;;;;;0.52;0.20;;;1.10;80.30;;;;;;5014901;28;20128;-68
2021/04/07 00:30:08;;;;;;;0.35;0.35;;;1.10;80.30;;;;;;5014785;28;20546;-68
2021/04/07 00:32:34;;;;;;;0.20;0.20;;;1.00;80.30;;;;;;5014218;28;20176;-68
2021/04/07 00:34:59;;;;;;;0.70;0.45;;;0.90;80.30;;;;;;5014862;28;20530;-68
2021/04/07 00:37:25;;;;;;;0.43;0.30;;;0.90;81.10;;;;;;5013537;28;20018;-68
2021/04/07 00:39:51;;;;;;;0.60;0.50;;;0.90;80.50;;;;;;5014569;28;20050;-68
2021/04/07 00:42:17;;;;;;;0.45;0.30;;;0.90;80.50;;;;;;5014828;28;20030;-68
2021/04/07 00:44:43;;;;;;;0.50;0.50;;;0.90;80.60;;;;;;5014538;28;20489;-68
2021/04/07 00:47:08;;;;;;;1.25;0.40;;;0.80;80.70;;;;;;5014085;28;20084;-68
2021/04/07 00:49:34;;;;;;;0.30;0.30;;;0.80;80.70;;;;;;5014272;28;20046;-69
2021/04/07 00:52:00;;;;;;;0.50;0.30;;;0.90;80.60;;;;;;5014433;28;20029;-68
2021/04/07 00:54:26;;;;;;;0.50;0.50;;;0.90;80.60;;;;;;5014310;28;20026;-68
2021/04/07 00:56:52;;;;;;;0.20;0.20;;;0.90;80.50;;;;;;5014268;28;20076;-68
2021/04/07 00:59:20;;;;;;;0.30;0.30;;;0.90;80.40;;;;;;5014321;28;20034;-68
2021/04/07 01:01:46;;;;;;;0.40;0.40;;;1.00;80.30;;;;;;5013941;28;20439;-68
2021/04/07 01:04:12;;;;;;;0.20;0.20;;;1.10;80.20;;;;;;5014303;28;20105;-68
2021/04/07 01:06:41;;;;;;;0.40;0.40;;;1.20;80.10;;;;;;5014197;28;20029;-68
2021/04/07 01:09:07;;;;;;;0.47;0.40;;;1.20;80.00;;;;;;5014142;28;20394;-68
2021/04/07 01:11:33;;;;;;;0.20;0.20;;;1.30;80.00;;;;;;5014110;28;20014;-68
2021/04/07 01:13:58;;;;;;;0.45;0.45;;;1.30;79.90;;;;;;5014046;28;20045;-68
2021/04/07 01:16:24;;;;;;;0.28;0.20;;;1.30;80.10;;;;;;5013597;28;20026;-68
2021/04/07 01:18:50;;;;;;;0.50;0.40;;;1.30;80.10;;;;;;5012720;28;20022;-68
2021/04/07 01:21:16;;;;;;;0.40;0.35;;;1.30;80.10;;;;;;5017091;28;20024;-68
2021/04/07 01:23:45;;;;;;;0.30;0.30;;;1.30;80.10;;;;;;5013766;28;20104;-68
2021/04/07 01:26:11;;;;;;;0.30;0.30;;;1.40;80.10;;;;;;5013917;28;20018;-68
2021/04/07 01:28:37;;;;;;;1.00;0.45;;;1.30;80.20;;;;;;5013698;28;20026;-68
2021/04/07 01:31:03;;;;;;;1.02;0.90;;;1.30;80.30;;;;;;5013411;28;20029;-68
2021/04/07 01:33:28;;;;;;;0.80;0.38;;;1.30;80.40;;;;;;5013675;28;20061;-69
2021/04/07 01:35:54;;;;;;;0.20;0.20;;;1.30;80.50;;;;;;5013589;28;20363;-70
2021/04/07 01:38:20;;;;;;;1.00;0.40;;;1.40;80.50;;;;;;5013624;28;20030;-68
2021/04/07 01:40:46;;;;;;;2.78;0.80;;;1.40;80.40;;;;;;5013472;28;20022;-68
2021/04/07 01:43:14;;;;;;;1.58;0.47;;;1.40;80.50;;;;;;5013506;28;20083;-68
2021/04/07 01:45:40;;;;;;;0.30;0.30;;;1.40;80.70;;;;;;5013225;28;20014;-68
2021/04/07 01:48:07;;;;;;;0.32;0.32;;;1.30;80.70;;;;;;5013224;28;20030;-68
2021/04/07 01:50:34;;;;;;;0.43;0.30;;;1.30;80.90;;;;;;5013067;28;20547;-68
2021/04/07 01:52:59;;;;;;;0.82;0.82;;;1.30;81.00;;;;;;5013207;28;20041;-68
2021/04/07 01:55:25;;;;;;;0.22;0.22;;;1.30;81.00;;;;;;5013436;28;20014;-68
2021/04/07 01:57:50;;;;;;;0.30;0.30;;;1.40;81.00;;;;;;5013196;28;20052;-68
2021/04/07 02:00:17;;;;;;;0.38;0.38;;;1.40;81.00;;;;;;5012758;28;20044;-68
2021/04/07 02:02:43;;;;;;;0.38;0.38;;;1.40;81.00;;;;;;5013111;28;20040;-68
2021/04/07 02:05:09;;;;;;;0.38;0.32;;;1.40;81.10;;;;;;5013141;28;20026;-68
2021/04/07 02:07:34;;;;;;;0.40;0.40;;;1.50;81.10;;;;;;5013037;28;20363;-68
2021/04/07 02:10:01;;;;;;;0.73;0.55;;;1.40;81.20;;;;;;5012928;28;20513;-68
2021/04/07 02:12:27;;;;;;;0.65;0.50;;;1.50;81.30;;;;;;5013110;28;20030;-68
2021/04/07 02:14:52;;;;;;;0.80;0.80;;;1.50;81.30;;;;;;5012514;28;20109;-68
2021/04/07 02:17:18;;;;;;;1.55;0.80;;;1.50;81.30;;;;;;5012748;28;20129;-68
2021/04/07 02:19:43;;;;;;;0.47;0.47;;;1.50;81.40;;;;;;5012892;28;20121;-68
2021/04/07 02:22:12;;;;;;;1.38;0.85;;;1.50;81.50;;;;;;5012754;28;20032;-68
2021/04/07 02:24:42;;;;;;;1.42;0.80;;;1.50;81.50;;;;;;5012875;28;20026;-68
2021/04/07 02:27:22;;;;;;;0.75;0.60;;;1.50;81.50;;;;;;5012782;28;20073;-69
2021/04/07 02:29:53;;;;;;;0.43;0.43;;;1.50;81.50;;;;;;5012294;28;20038;-69
2021/04/07 02:32:19;;;;;;;0.47;0.47;;;1.60;81.50;;;;;;5012690;28;20026;-69
2021/04/07 02:34:45;;;;;;;1.20;0.40;;;1.60;81.40;;;;;;5012698;28;20022;-68
2021/04/07 02:37:12;;;;;;;0.38;0.38;;;1.60;81.30;;;;;;5011311;28;20072;-68
2021/04/07 02:39:37;;;;;;;1.23;0.50;;;1.70;81.40;;;;;;5012628;28;20022;-68
2021/04/07 02:42:03;;;;;;;0.63;0.60;;;1.70;81.40;;;;;;5012011;28;20121;-68
2021/04/07 02:44:29;;;;;;;0.70;0.63;;;1.70;81.40;;;;;;5012627;28;20033;-68
2021/04/07 02:46:54;;;;;;;0.50;0.50;;;1.70;81.50;;;;;;5012471;28;20018;-68
2021/04/07 02:49:20;;;;;;;0.43;0.43;;;1.70;81.50;;;;;;5012648;28;20164;-68
2021/04/07 02:51:46;;;;;;;0.35;0.35;;;1.70;81.60;;;;;;5012412;28;20042;-68
2021/04/07 02:54:12;;;;;;;0.30;0.30;;;1.60;81.80;;;;;;5012579;28;20395;-68
2021/04/07 02:56:38;;;;;;;0.65;0.50;;;1.60;82.00;;;;;;5012122;28;20014;-68
2021/04/07 02:59:04;;;;;;;1.15;0.43;;;1.50;82.00;;;;;;5012369;28;20477;-68
2021/04/07 03:01:29;;;;;;;0.40;0.40;;;1.50;82.30;;;;;;5014146;28;20114;-68
2021/04/07 03:03:55;;;;;;;0.45;0.45;;;1.40;82.30;;;;;;5016387;28;20058;-68
2021/04/07 03:06:20;;;;;;;0.38;0.38;;;1.50;82.40;;;;;;5016291;28;20029;-68
2021/04/07 03:08:48;;;;;;;0.30;0.30;;;1.50;82.50;;;;;;5016409;28;20032;-68
2021/04/07 03:11:13;;;;;;;0.30;0.30;;;1.50;82.40;;;;;;5016086;28;20030;-68
2021/04/07 03:13:39;;;;;;;0.40;0.40;;;1.50;82.30;;;;;;5015013;28;20040;-68
2021/04/07 03:16:05;;;;;;;0.60;0.60;;;1.40;82.30;;;;;;5016013;28;20068;-68
2021/04/07 03:18:31;;;;;;;0.40;0.40;;;1.40;82.50;;;;;;5016104;28;20034;-68
2021/04/07 03:20:56;;;;;;;0.30;0.30;;;1.30;82.70;;;;;;5016316;28;20065;-69
2021/04/07 03:23:22;;;;;;;0.22;0.22;;;1.30;82.80;;;;;;5019309;28;20079;-68
2021/04/07 03:25:47;;;;;;;0.47;0.47;;;1.30;82.90;;;;;;5015705;28;20068;-68
2021/04/07 03:28:13;;;;;;;0.30;0.30;;;1.30;82.70;;;;;;5015992;28;20022;-69
2021/04/07 03:30:51;;;;;;;0.20;0.20;;;1.40;82.80;;;;;;5031282;28;20451;-68
2021/04/07 03:33:25;;;;;;;0.32;0.32;;;1.40;82.90;;;;;;5016038;28;20041;-68
2021/04/07 03:35:51;;;;;;;0.43;0.40;;;1.40;82.90;;;;;;5016005;28;20034;-68
2021/04/07 03:38:18;;;;;;;0.50;0.50;;;1.40;82.80;;;;;;5015935;28;20509;-69
2021/04/07 03:40:43;;;;;;;0.43;0.43;;;1.50;82.80;;;;;;5014172;28;20375;-68
2021/04/07 03:43:11;;;;;;;0.30;0.30;;;1.50;82.70;;;;;;5015744;28;20037;-68
2021/04/07 03:45:41;;;;;;;0.30;0.30;;;1.50;83.30;;;;;;5015867;28;20462;-69
2021/04/07 03:48:09;;;;;;;0.50;0.50;;;1.50;82.70;;;;;;5015765;28;20122;-68
2021/04/07 03:50:34;;;;;;;0.40;0.40;;;1.50;82.80;;;;;;5014581;28;20069;-68
2021/04/07 03:53:00;;;;;;;0.43;0.43;;;1.50;82.90;;;;;;5015687;28;20068;-68
2021/04/07 03:55:26;;;;;;;1.00;0.57;;;1.50;82.90;;;;;;5015157;28;20018;-68
2021/04/07 03:57:51;;;;;;;0.70;0.70;;;1.50;83.00;;;;;;5014298;28;20062;-69
2021/04/07 04:00:17;;;;;;;0.63;0.63;;;1.50;83.10;;;;;;5015649;28;20133;-69
2021/04/07 04:02:43;;;;;;;0.90;0.70;;;1.50;83.20;;;;;;5015560;28;20068;-69
2021/04/07 04:05:09;;;;;;;0.40;0.40;;;1.50;83.30;;;;;;5015380;28;20025;-68
2021/04/07 04:07:34;;;;;;;0.50;0.50;;;1.50;83.30;;;;;;5015338;28;20085;-69
2021/04/07 04:10:00;;;;;;;0.63;0.63;;;1.40;83.30;;;;;;5015111;28;20540;-69
2021/04/07 04:12:25;;;;;;;0.82;0.45;;;1.40;83.50;;;;;;5015080;28;20421;-69
2021/04/07 04:14:51;;;;;;;0.47;0.43;;;1.40;83.60;;;;;;5015210;28;20116;-69
2021/04/07 04:17:17;;;;;;;0.70;0.50;;;1.40;83.70;;;;;;5014933;28;20056;-69
2021/04/07 04:19:42;;;;;;;0.40;0.40;;;1.40;83.70;;;;;;5015291;28;20037;-69
2021/04/07 04:22:08;;;;;;;0.50;0.35;;;1.40;83.70;;;;;;5015120;28;20033;-68
2021/04/07 04:24:34;;;;;;;0.38;0.38;;;1.40;83.70;;;;;;5014642;28;20029;-69
2021/04/07 04:26:59;;;;;;;0.35;0.35;;;1.40;83.70;;;;;;5015049;28;20015;-69
2021/04/07 04:29:25;;;;;;;0.40;0.40;;;1.40;83.80;;;;;;5014909;28;20125;-69
2021/04/07 04:31:50;;;;;;;1.02;0.70;;;1.40;83.90;;;;;;5015020;28;20053;-69
2021/04/07 04:34:16;;;;;;;2.10;0.60;;;1.30;83.90;;;;;;5014854;28;20495;-69
2021/04/07 04:36:42;;;;;;;0.75;0.65;;;1.40;84.00;;;;;;5014928;28;20093;-69
2021/04/07 04:39:07;;;;;;;0.80;0.32;;;1.30;84.00;;;;;;5014425;28;20364;-69
2021/04/07 04:41:32;;;;;;;0.30;0.30;;;1.30;84.10;;;;;;5013475;28;20497;-69
2021/04/07 04:43:58;;;;;;;0.30;0.30;;;1.40;84.10;;;;;;5014758;28;20034;-69
2021/04/07 04:46:23;;;;;;;0.40;0.40;;;1.40;84.10;;;;;;5014808;28;20026;-69
2021/04/07 04:48:49;;;;;;;0.98;0.68;;;1.40;84.10;;;;;;5014580;28;20087;-69
2021/04/07 04:51:14;;;;;;;0.43;0.43;;;1.40;84.10;;;;;;5014557;28;20509;-69
2021/04/07 04:53:40;;;;;;;0.40;0.40;;;1.40;84.00;;;;;;5014255;28;20060;-69
2021/04/07 04:56:06;;;;;;;0.25;0.25;;;1.50;84.10;;;;;;5014467;28;20105;-69
2021/04/07 04:58:31;;;;;;;0.50;0.50;;;1.40;84.00;;;;;;5014652;28;20026;-69
2021/04/07 05:00:58;;;;;;;0.40;0.38;;;1.50;84.10;;;;;;5014476;28;20057;-69
2021/04/07 05:03:23;;;;;;;0.55;0.50;;;1.50;84.20;;;;;;5013020;28;20508;-70
2021/04/07 05:05:49;;;;;;;0.45;0.45;;;1.50;84.20;;;;;;5014286;28;20100;-70
2021/04/07 05:08:14;;;;;;;0.45;0.45;;;1.50;84.30;;;;;;5013731;28;20069;-69
2021/04/07 05:10:40;;;;;;;0.50;0.50;;;1.40;84.30;;;;;;5014084;28;20029;-69
2021/04/07 05:13:05;;;;;;;0.25;0.25;;;1.40;84.30;;;;;;5014116;28;20361;-69
2021/04/07 05:15:31;;;;;;;0.63;0.63;;;1.50;84.40;;;;;;5029484;28;20025;-70
2021/04/07 05:17:56;;;;;;;0.55;0.55;;;1.50;84.60;;;;;;5013818;28;20041;-70
2021/04/07 05:20:22;;;;;;;0.50;0.47;;;1.50;84.50;;;;;;5014088;28;20018;-70
2021/04/07 05:22:47;;;;;;;0.80;0.80;;;1.50;84.60;;;;;;5016486;28;20498;-70
2021/04/07 05:25:13;;;;;;;0.98;0.70;;;1.50;84.70;;;;;;5013342;28;20084;-70
2021/04/07 05:27:39;;;;;;;1.33;0.90;;;1.50;84.70;;;;;;5013816;28;20014;-70
2021/04/07 05:30:05;;;;;;;1.25;1.15;;;1.50;84.60;;;;;;5013814;28;20045;-69
2021/04/07 05:32:31;;;;;;;0.52;0.52;;;1.60;84.70;;;;;;5013926;28;20501;-70
2021/04/07 05:34:56;;;;;;;0.70;0.70;;;1.60;84.70;;;;;;5013817;28;20030;-70
2021/04/07 05:37:22;;;;;;;0.30;0.30;;;1.60;84.70;;;;;;5013422;28;20029;-69
2021/04/07 05:39:47;;;;;;;0.63;0.63;;;1.70;84.70;;;;;;5013620;28;20547;-70
2021/04/07 05:42:13;;;;;;;0.45;0.45;;;1.70;84.70;;;;;;5013521;28;20053;-70
2021/04/07 05:44:38;;;;;;;0.70;0.60;;;1.70;84.70;;;;;;5013578;28;20101;-70
2021/04/07 05:47:04;;;;;;;0.50;0.50;;;1.80;84.70;;;;;;5013579;28;20033;-70
2021/04/07 05:49:29;;;;;;;0.60;0.60;;;1.80;84.70;;;;;;5012189;28;20080;-70
2021/04/07 05:51:55;;;;;;;0.40;0.40;;;1.80;84.70;;;;;;5013168;28;20022;-70
2021/04/07 05:54:20;;;;;;;0.38;0.38;;;1.80;84.70;;;;;;5013354;28;20466;-70
2021/04/07 05:56:46;;;;;;;0.43;0.43;;;1.80;84.70;;;;;;5013255;28;20025;-70
2021/04/07 05:59:11;;;;;;;0.30;0.30;;;1.80;85.20;;;;;;5013514;28;20065;-69
2021/04/07 06:01:37;;;;;;;0.68;0.50;;;1.80;84.80;;;;;;5013236;28;20030;-69
2021/04/07 06:04:03;;;;;;;0.50;0.50;;;1.80;84.80;;;;;;5013282;28;20032;-69
2021/04/07 06:06:29;;;;;;;0.55;0.38;;;1.70;85.00;;;;;;5012801;28;20033;-70
2021/04/07 06:08:55;;;;;;;0.30;0.30;;;1.60;85.30;;;;;;5013106;28;20034;-70
2021/04/07 06:11:20;;;;;;;0.40;0.40;;;1.50;85.50;;;;;;5012969;28;20048;-70
2021/04/07 06:13:49;;;;;;;0.20;0.20;;;1.50;85.50;;;;;;5013240;28;20026;-69
2021/04/07 06:16:14;;;;;;;0.30;0.30;;;1.60;85.60;;;;;;5013041;28;20137;-70
2021/04/07 06:18:41;;;;;;;0.40;0.40;;;1.60;85.40;;;;;;5013191;28;20386;-69
2021/04/07 06:21:07;;;;;;;0.30;0.30;;;1.70;85.30;;;;;;5012623;28;20033;-69
2021/04/07 06:23:32;;;;;;;0.40;0.40;;;1.80;85.10;;;;;;5011616;28;20026;-69
2021/04/07 06:25:58;;;;;;;0.52;0.40;;;1.80;84.90;;;;;;5012764;28;20030;-69
2021/04/07 06:28:24;;;;;;;0.30;0.30;;;1.90;84.80;;;;;;5012824;28;20113;-69
2021/04/07 06:30:49;;;;;;;0.40;0.40;;;2.00;84.60;;;;;;5012691;28;20101;-69
2021/04/07 06:33:23;;;;;;;1.77;0.57;;;2.10;84.50;;;;;;5012759;28;20057;-69
2021/04/07 06:35:51;;;;;;;0.40;0.40;;;2.20;84.30;;;;;;5010023;28;20049;-70
2021/04/07 06:38:18;;;;;;;0.50;0.50;;;2.30;84.20;;;;;;5012663;28;20097;-69
2021/04/07 06:40:45;;;;;;;0.60;0.60;;;2.40;84.20;;;;;;5012673;28;20706;-70
2021/04/07 06:43:11;;;;;;;0.60;0.60;;;2.60;84.10;;;;;;5012774;28;20064;-70
2021/04/07 06:45:39;;;;;;;1.85;0.90;;;2.60;83.90;;;;;;5012637;28;20026;-69
2021/04/07 06:48:06;;;;;;;0.30;0.30;;;2.60;84.10;;;;;;5012500;28;20030;-69
2021/04/07 06:50:32;;;;;;;0.60;0.60;;;2.60;84.20;;;;;;5012203;28;20030;-70
2021/04/07 06:52:59;;;;;;;0.50;0.50;;;2.70;84.20;;;;;;5012310;28;20117;-70
2021/04/07 06:55:26;;;;;;;1.02;0.45;;;2.70;84.10;;;;;;5018994;28;20029;-69
2021/04/07 06:57:53;;;;;;;0.65;0.63;;;2.80;84.30;;;;;;5030560;28;20108;-70
2021/04/07 07:00:19;;;;;;;0.70;0.70;;;2.90;84.30;;;;;;5029936;28;20113;-69
2021/04/07 07:02:45;;;;;;;0.40;0.40;;;3.00;84.10;;;;;;5019480;28;20018;-70
2021/04/07 07:05:11;;;;;;;0.93;0.90;;;3.00;84.10;;;;;;5031246;28;20029;-69
2021/04/07 07:07:36;;;;;;;0.63;0.63;;;3.10;84.20;;;;;;5030658;28;20057;-70
2021/04/07 07:10:03;;;;;;;0.70;0.70;;;3.20;84.30;;;;;;5031830;28;20073;-71
2021/04/07 07:12:31;;;;;;;0.50;0.50;;;3.40;83.80;;;;;;5030747;28;20030;-71
2021/04/07 07:15:01;;;;;;;0.65;0.60;;;3.60;83.50;;;;;;5030767;28;20513;-72
2021/04/07 07:17:29;;;;;;;0.60;0.60;;;3.80;83.40;;;;;;5030395;28;20131;-71
2021/04/07 07:19:54;;;;;;;0.40;0.40;;;3.90;83.40;;;;;;5030530;28;20397;-70
2021/04/07 07:22:23;;;;;;;0.90;0.73;;;4.00;83.40;;;;;;5031680;28;20467;-70
2021/04/07 07:24:54;;;;;;;0.93;0.70;;;4.10;83.40;;;;;;5030578;28;20386;-70
2021/04/07 07:27:20;;;;;;;1.88;0.73;;;4.10;83.60;;;;;;5031401;28;20022;-71
2021/04/07 07:29:54;;;;;;;2.25;0.75;;;4.00;83.80;;;;;;5031749;28;20040;-70
2021/04/07 07:32:20;;;;;;;0.90;0.90;;;4.20;83.90;;;;;;5029983;28;20021;-70
2021/04/07 07:34:46;;;;;;;1.20;0.70;;;4.20;83.90;;;;;;5031668;28;20059;-71
2021/04/07 07:37:23;;;;;;;0.65;0.65;;;4.20;83.90;;;;;;5031481;28;20124;-69
2021/04/07 07:39:49;;;;;;;1.38;0.80;;;4.30;84.10;;;;;;5031753;28;20036;-70
2021/04/07 07:42:15;;;;;;;0.47;0.43;;;4.30;84.20;;;;;;5031446;28;20530;-69
2021/04/07 07:44:40;;;;;;;1.27;0.60;;;4.30;84.10;;;;;;5030381;28;20497;-69
2021/04/07 07:47:23;;;;;;;0.73;0.73;;;4.40;84.20;;;;;;5031863;28;20097;-69
2021/04/07 07:49:58;;;;;;;1.33;0.60;;;4.50;84.20;;;;;;5035508;28;20125;-70
2021/04/07 07:52:35;;;;;;;0.50;0.43;;;4.50;84.00;;;;;;5035135;28;20029;-69
2021/04/07 07:55:17;;;;;;;2.88;0.70;;;4.50;84.00;;;;;;5034987;28;20788;-69
2021/04/07 07:57:56;;;;;;;1.25;0.90;;;4.60;84.30;;;;;;5035299;28;20481;-69
2021/04/07 08:00:26;;;;;;;1.73;0.80;;;4.70;84.40;;;;;;5035109;28;20056;-69
2021/04/07 08:02:52;;;;;;;;;;;4.80;84.30;;;;;;5035012;28;20026;-69
2021/04/07 08:05:19;;;;;;;0.70;0.50;;;4.70;84.20;;;;;;5034954;28;19905;-69
2021/04/07 08:07:44;;;;;;;1.15;0.70;;;4.80;84.40;;;;;;5033679;28;20044;-69
2021/04/07 08:10:11;;;;;;;2.53;1.05;;;4.80;84.50;;;;;;5033524;28;20486;-69
2021/04/07 08:12:38;;;;;;;1.10;0.77;;;4.80;84.80;;;;;;5035133;28;20022;-69
2021/04/07 08:15:05;;;;;;;2.97;1.75;;;4.90;85.00;;;;;;5034911;28;20029;-69
2021/04/07 08:17:32;;;;;;;3.28;1.17;;;5.00;85.00;;;;;;5032867;28;20424;-69
2021/04/07 08:20:00;;;;;;;2.55;1.80;;;5.10;85.00;;;;;;5034893;28;20036;-69
2021/04/07 08:22:27;;;;;;;2.63;1.02;;;5.20;85.00;;;;;;5034720;28;20021;-68
2021/04/07 08:24:53;;;;;;;5.32;1.77;;;5.20;84.90;;;;;;5034849;28;20044;-69
2021/04/07 08:27:21;;;;;;;6.07;2.15;;;5.30;85.00;;;;;;5034723;28;20382;-69
2021/04/07 08:29:47;;;;;;;5.45;1.90;;;5.20;85.50;;;;;;5034727;28;20128;-70
2021/04/07 08:32:13;;;;;;;7.22;1.85;;;5.00;86.00;;;;;;5032289;28;20100;-70
2021/04/07 08:34:39;;;;;;;7.93;2.13;;;4.90;86.30;;;;;;5033861;28;20408;-70
2021/04/07 08:37:05;;;;;;;4.80;1.90;;;4.80;86.50;;;;;;5032067;28;20028;-69
2021/04/07 08:39:42;;;;;;;3.15;1.40;;;4.70;86.80;;;;;;5034481;28;20029;-69
2021/04/07 08:42:10;;;;;;;5.95;1.40;;;4.60;87.10;;;;;;5034577;28;20024;-69
2021/04/07 08:44:40;;;;;;;3.65;1.77;;;4.60;87.10;;;;;;5034028;28;20014;-69
2021/04/07 08:47:08;;;;;;;1.80;1.05;;;4.70;87.10;;;;;;5034491;28;20029;-68
2021/04/07 08:49:39;;;;;;;2.55;1.40;;;4.70;87.00;;;;;;5034183;28;20025;-69
2021/04/07 08:52:24;;;;;;;6.05;1.55;;;4.90;87.00;;;;;;5034294;28;20052;-69
2021/04/07 08:54:51;;;;;;;2.65;1.58;;;5.10;86.50;;;;;;5034336;28;20028;-69
2021/04/07 08:57:27;;;;;;;3.42;1.70;;;5.40;86.30;;;;;;5033037;28;20014;-69
2021/04/07 08:59:54;;;;;;;4.85;2.05;;;5.70;85.70;;;;;;5013162;28;20083;-69
2021/04/07 09:02:19;;;;;;;8.55;2.95;;;6.00;85.10;;;;;;5014359;28;20160;-69
2021/04/07 09:04:58;;;;;;;5.13;1.65;;;6.20;85.10;;;;;;5014247;28;20486;-69
2021/04/07 09:07:45;;;;;;;6.47;2.13;;;6.30;85.10;;;;;;5028365;28;20025;-69
2021/04/07 09:10:18;;;;;;;7.75;2.30;;;6.40;84.80;;;;;;5031245;28;20057;-69
2021/04/07 09:12:45;;;;;;;4.68;2.30;;;6.50;84.90;;;;;;5026905;28;20029;-70
2021/04/07 09:15:14;;;;;;;6.35;2.35;;;6.50;84.90;;;;;;5030095;28;20022;-70
2021/04/07 09:17:49;;;;;;;13.20;3.53;;;6.70;84.80;;;;;;5033282;28;20179;-69
2021/04/07 09:20:37;;;;;;;11.32;3.47;;;6.90;84.40;;;;;;5033641;28;20044;-69
2021/04/07 09:23:24;;;;;;;6.80;2.95;;;6.80;84.50;;;;;;5033539;28;20033;-69
2021/04/07 09:25:53;;;;;;;8.07;2.35;;;6.70;84.80;;;;;;5033653;28;20032;-69
2021/04/07 09:28:36;;;;;;;6.68;3.08;;;6.60;85.20;;;;;;5033444;28;20018;-69
2021/04/07 09:31:08;;;;;;;9.68;3.70;;;6.70;85.30;;;;;;5033620;28;20030;-69
2021/04/07 09:33:37;;;;;;;5.60;2.50;;;6.80;85.30;;;;;;5033478;28;20032;-69
2021/04/07 09:36:03;;;;;;;6.45;2.22;;;6.90;85.10;;;;;;5033602;28;20355;-69
2021/04/07 09:38:30;;;;;;;8.27;2.70;;;7.10;84.70;;;;;;5033447;28;20470;-68
2021/04/07 09:41:11;;;;;;;6.60;2.85;;;7.20;84.50;;;;;;5032011;28;20032;-69
2021/04/07 09:43:37;;;;;;;5.40;1.90;;;7.40;84.20;;;;;;5032797;28;20517;-68
2021/04/07 09:46:05;;;;;;;7.68;3.55;;;7.50;84.00;;;;;;5033268;28;20026;-69
2021/04/07 09:48:38;;;;;;;6.20;2.47;;;7.50;83.90;;;;;;5033359;28;20030;-69
2021/04/07 09:51:19;;;;;;;5.75;2.67;;;7.40;84.20;;;;;;5033183;28;20026;-70
2021/04/07 09:53:45;;;;;;;3.75;2.30;;;7.30;84.20;;;;;;5033118;28;20029;-70
2021/04/07 09:56:11;;;;;;;4.68;1.98;;;7.10;84.70;;;;;;5033032;28;20531;-71
2021/04/07 09:58:49;;;;;;;5.60;2.10;;;6.80;85.00;;;;;;5032747;28;20021;-71
2021/04/07 10:01:16;;;;;;;5.57;1.75;;;6.30;85.80;;;;;;5025828;28;20522;-70
2021/04/07 10:03:53;;;;;;;6.88;2.80;;;5.90;86.80;;;;;;5013254;28;20057;-71
2021/04/07 10:06:20;;;;;;;10.02;2.72;;;5.70;86.90;;;;;;5013194;28;20056;-71
2021/04/07 10:08:56;;;;;;;4.38;2.08;;;5.50;87.30;;;;;;5012947;28;20037;-72
2021/04/07 10:11:21;;;;;;;5.78;2.67;;;5.40;87.50;;;;;;5012985;28;20415;-70
2021/04/07 10:13:47;;;;;;;3.47;1.65;;;5.40;87.50;;;;;;5012784;28;20033;-69
2021/04/07 10:16:13;;;;;;;7.10;1.95;;;5.50;87.00;;;;;;5012902;28;20489;-69
2021/04/07 10:18:40;;;;;;;6.05;1.80;;;5.60;86.70;;;;;;5012894;28;20057;-68
2021/04/07 10:21:16;;;;;;;4.32;2.00;;;5.80;86.60;;;;;;5012814;28;20049;-69
2021/04/07 10:23:43;;;;;;;9.25;2.47;;;6.00;86.20;;;;;;5013136;28;20029;-70
2021/04/07 10:26:09;;;;;;;6.10;1.80;;;6.10;86.60;;;;;;5012396;28;20024;-71
2021/04/07 10:28:35;;;;;;;4.57;2.03;;;6.40;85.90;;;;;;5012782;28;20025;-68
2021/04/07 10:31:06;;;;;;;8.02;2.58;;;6.80;85.30;;;;;;5012797;28;20117;-69
2021/04/07 10:33:32;;;;;;;4.45;2.28;;;7.00;84.90;;;;;;5012865;28;20022;-68
2021/04/07 10:35:59;;;;;;;3.42;1.77;;;7.00;84.60;;;;;;5012539;28;20029;-67
2021/04/07 10:38:29;;;;;;;4.07;1.98;;;7.00;84.60;;;;;;5019279;28;20129;-68
2021/04/07 10:40:59;;;;;;;6.15;3.08;;;7.10;84.30;;;;;;5027285;28;20025;-69
2021/04/07 10:43:31;;;;;;;4.57;1.95;;;7.00;84.20;;;;;;5023757;28;20109;-68
2021/04/07 10:45:59;;;;;;;5.00;2.10;;;7.00;84.40;;;;;;5012466;28;20483;-68
2021/04/07 10:48:25;;;;;;;4.90;2.10;;;7.30;84.30;;;;;;5027416;28;20524;-68
2021/04/07 10:50:50;;;;;;;3.67;1.90;;;7.60;83.50;;;;;;5032297;28;20030;-68
2021/04/07 10:53:30;;;;;;;5.07;1.98;;;7.90;82.80;;;;;;5032243;28;20390;-68
2021/04/07 10:55:56;;;;;;;;;;;7.70;82.50;;;;;;5030847;28;20026;-68
2021/04/07 10:58:26;;;;;;;4.90;1.75;;;7.10;83.40;;;;;;5030014;28;19905;-68
2021/04/07 11:00:52;;;;;;;7.47;2.00;;;6.60;84.90;;;;;;5031322;28;20716;-69
2021/04/07 11:03:30;;;;;;;6.70;2.35;;;6.20;85.50;;;;;;5030848;28;20151;-68
2021/04/07 11:05:56;;;;;;;4.53;1.77;;;5.70;86.10;;;;;;5032048;28;20119;-69
2021/04/07 11:08:32;;;;;;;8.27;2.67;;;5.50;86.90;;;;;;5031893;28;20462;-69
2021/04/07 11:10:57;;;;;;;6.47;2.40;;;5.40;86.90;;;;;;5030532;28;20063;-68
2021/04/07 11:13:23;;;;;;;5.95;1.98;;;5.50;86.80;;;;;;5032090;28;20017;-69
2021/04/07 11:15:49;;;;;;;3.72;1.45;;;5.70;86.20;;;;;;5033159;28;20397;-68
2021/04/07 11:18:15;;;;;;;2.40;1.20;;;6.00;85.70;;;;;;5031922;28;20067;-68
2021/04/07 11:20:42;;;;;;;3.22;1.88;;;6.40;85.00;;;;;;5032169;28;20018;-69
2021/04/07 11:23:09;;;;;;;6.72;2.00;;;6.70;84.30;;;;;;5034770;28;20343;-68
2021/04/07 11:25:34;;;;;;;1.50;1.05;;;6.80;83.80;;;;;;5027976;28;20130;-68
2021/04/07 11:28:00;;;;;;;2.38;1.20;;;7.00;83.90;;;;;;5025924;28;20021;-69
2021/04/07 11:30:30;;;;;;;5.82;2.45;;;7.10;83.60;;;;;;5035732;28;20049;-69
2021/04/07 11:32:59;;;;;;;2.85;1.35;;;7.20;83.40;;;;;;5035715;28;20038;-68
2021/04/07 11:35:40;;;;;;;5.55;1.60;;;6.90;83.40;;;;;;5034541;28;20096;-69
2021/04/07 11:38:08;;;;;;;4.30;1.70;;;6.50;84.30;;;;;;5036201;28;20026;-68
2021/04/07 11:45:25;;;;;;;4.82;1.90;;;5.90;85.40;;;;;;5019111;28;20079;-69
2021/04/07 11:47:51;;;;;;;3.83;2.05;;;6.00;85.10;;;;;;5035535;28;20021;-69
2021/04/07 11:50:16;;;;;;;3.60;1.77;;;6.10;84.90;;;;;;5035401;28;20033;-68
2021/04/07 11:52:42;;;;;;;5.05;2.22;;;6.20;84.70;;;;;;5035405;28;20385;-69
2021/04/07 11:55:08;;;;;;;5.88;1.25;;;6.50;84.40;;;;;;5035186;28;20025;-68
2021/04/07 11:57:34;;;;;;;3.45;1.50;;;6.80;83.50;;;;;;5035434;28;20024;-68
2021/04/07 11:59:59;;;;;;;1.90;1.10;;;7.00;82.90;;;;;;5035379;28;20382;-68
2021/04/07 12:02:25;;;;;;;4.47;1.95;;;7.10;82.60;;;;;;5035215;28;20021;-68
2021/04/07 12:04:52;;;;;;;3.97;1.40;;;7.20;82.40;;;;;;5035284;28;20105;-68
2021/04/07 12:07:18;;;;;;;3.53;1.77;;;7.20;82.40;;;;;;5035097;28;20029;-67
2021/04/07 12:09:43;;;;;;;7.38;2.33;;;7.10;82.70;;;;;;5034729;28;20033;-68
2021/04/07 12:12:09;;;;;;;3.85;1.60;;;6.90;83.10;;;;;;5035255;28;20462;-67
2021/04/07 12:14:35;;;;;;;5.53;1.85;;;6.60;83.80;;;;;;5035067;28;20025;-67
2021/04/07 12:17:01;;;;;;;8.02;2.08;;;6.40;84.00;;;;;;5034922;28;20037;-68
2021/04/07 12:19:26;;;;;;;2.70;1.58;;;6.40;83.90;;;;;;5034876;28;20378;-67
2021/04/07 12:21:52;;;;;;;3.83;1.38;;;6.20;84.20;;;;;;5015404;28;20044;-67
2021/04/07 12:24:18;;;;;;;3.42;1.92;;;6.20;84.30;;;;;;5014693;28;20036;-68
2021/04/07 12:26:44;;;;;;;5.00;1.60;;;6.30;84.00;;;;;;5015280;28;20117;-68
2021/04/07 12:29:10;;;;;;;5.13;2.08;;;6.50;83.30;;;;;;5014930;28;20058;-67
2021/04/07 12:31:35;;;;;;;3.80;1.75;;;6.50;82.90;;;;;;5015253;28;20022;-68
2021/04/07 12:34:01;;;;;;;3.15;1.80;;;6.50;82.70;;;;;;5013589;28;20378;-67
2021/04/07 12:36:28;;;;;;;2.67;1.77;;;6.40;82.60;;;;;;5018808;28;20048;-67
2021/04/07 12:38:55;;;;;;;2.35;1.17;;;6.40;82.70;;;;;;5034202;28;20437;-68
2021/04/07 12:43:47;;;;;;;3.33;1.20;;;6.60;81.90;;;;;;5034730;28;20030;-68
2021/04/07 12:46:12;;;;;;;4.32;2.00;;;6.60;81.50;;;;;;5034483;28;20022;-68
2021/04/07 12:48:38;;;;;;;3.58;1.52;;;6.60;81.30;;;;;;5034786;28;20025;-69
2021/04/07 12:51:04;;;;;;;4.93;1.60;;;6.60;81.40;;;;;;5033952;28;20552;-68
2021/04/07 12:53:29;;;;;;;5.95;1.85;;;6.60;81.20;;;;;;5034300;28;20040;-68
2021/04/07 12:55:55;;;;;;;5.20;2.17;;;6.80;81.00;;;;;;5034279;28;20053;-68
2021/04/07 12:58:20;;;;;;;5.30;1.80;;;7.00;80.20;;;;;;5034144;28;20014;-68
2021/04/07 13:00:45;;;;;;;4.72;1.85;;;7.20;79.80;;;;;;5027853;28;20705;-68
2021/04/07 13:03:13;;;;;;;5.35;1.80;;;7.30;79.30;;;;;;5032246;28;20052;-68
2021/04/07 13:05:39;;;;;;;3.33;1.50;;;7.20;79.00;;;;;;5032456;28;20018;-70